Time;durP1;ratioP1;P1;durP2;ratioP2;P2;SDS_P1;SDS_P2;PMS_P1;PMS_P2;Temp;Humidity;BMP_temperature;BMP_pressure;BME280_temperature;BME280_humidity;BME280_pressure;Samples;Min_cycle;Max_cycle;Signal;HPM_P1;HPM_P2
2022/11/23 00:00:25;;;;;;;13.23;6.95;;;;;;;4.29;85.62;97591.09;5094070;28;20070;-47
2022/11/23 00:02:57;;;;;;;14.02;9.25;;;;;;;4.26;87.51;97591.44;5094104;28;20028;-47
2022/11/23 00:05:24;;;;;;;18.95;8.90;;;;;;;4.35;88.52;97588.53;5094118;28;20055;-47
2022/11/23 00:07:50;;;;;;;16.15;10.13;;;;;;;4.29;86.06;97591.88;5095590;28;20036;-47
2022/11/23 00:10:16;;;;;;;16.02;8.50;;;;;;;4.06;85.90;97588.69;5093894;28;20081;-47
2022/11/23 00:12:42;;;;;;;22.52;10.50;;;;;;;3.98;87.73;97581.81;5095261;28;20440;-47
2022/11/23 00:15:09;;;;;;;14.25;9.75;;;;;;;4.05;88.24;97584.50;5095230;28;20048;-47
2022/11/23 00:17:34;;;;;;;13.60;8.65;;;;;;;4.16;88.88;97583.97;5095109;28;20024;-47
2022/11/23 00:20:00;;;;;;;17.83;9.80;;;;;;;4.23;88.16;97590.03;5093716;28;20443;-47
2022/11/23 00:22:26;;;;;;;16.50;10.85;;;;;;;4.34;87.91;97583.53;5093714;28;20024;-47
2022/11/23 00:24:51;;;;;;;15.98;9.18;;;;;;;4.36;88.45;97577.16;5093415;28;20187;-47
2022/11/23 00:27:17;;;;;;;12.38;8.90;;;;;;;4.34;89.02;97579.13;5093657;28;20024;-47
2022/11/23 00:29:43;;;;;;;12.30;8.45;;;;;;;4.40;89.18;97573.19;5094901;28;20028;-47
2022/11/23 00:32:09;;;;;;;18.02;8.35;;;;;;;4.53;89.55;97571.69;5094836;28;20371;-47
2022/11/23 00:34:34;;;;;;;21.08;9.43;;;;;;;4.41;88.13;97563.63;5094776;28;20027;-47
2022/11/23 00:37:00;;;;;;;15.02;9.35;;;;;;;4.29;87.72;97558.13;5094772;28;20107;-47
2022/11/23 00:39:25;;;;;;;14.73;8.32;;;;;;;4.09;86.53;97550.16;5093312;28;20093;-47
2022/11/23 00:41:51;;;;;;;14.70;8.77;;;;;;;3.92;86.77;97554.00;5094697;28;20051;-47
2022/11/23 00:44:16;;;;;;;17.10;9.18;;;;;;;3.86;87.69;97557.34;5094641;28;20092;-47
2022/11/23 00:46:42;;;;;;;16.45;8.50;;;;;;;3.83;88.81;97555.13;5094603;28;20020;-47
2022/11/23 00:49:08;;;;;;;17.52;9.15;;;;;;;3.80;88.18;97564.06;5094568;28;20117;-47
2022/11/23 00:51:36;;;;;;;14.02;8.98;;;;;;;3.77;87.82;97565.25;5094339;28;20031;-47
2022/11/23 00:54:05;;;;;;;16.45;9.20;;;;;;;3.71;87.50;97568.56;5093441;28;20489;-47
2022/11/23 00:56:33;;;;;;;11.85;7.72;;;;;;;3.70;87.34;97564.38;5093729;28;20017;-47
2022/11/23 00:59:02;;;;;;;13.45;8.43;;;;;;;3.67;86.21;97564.75;5094300;28;20032;-47
2022/11/23 01:01:32;;;;;;;13.25;7.88;;;;;;;3.69;86.55;97562.78;5092994;28;20035;-47
2022/11/23 01:04:00;;;;;;;14.27;8.27;;;;;;;3.74;87.40;97559.63;5094212;28;20502;-47
2022/11/23 01:06:35;;;;;;;16.52;9.23;;;;;;;3.77;87.55;97554.06;5094182;28;20024;-47
2022/11/23 01:09:05;;;;;;;13.75;7.78;;;;;;;3.79;86.68;97554.69;5094194;28;20024;-47
2022/11/23 01:11:31;;;;;;;14.57;6.72;;;;;;;3.81;87.30;97555.31;5094133;28;20043;-47
2022/11/23 01:13:57;;;;;;;14.80;8.10;;;;;;;3.84;87.29;97551.53;5094068;28;20024;-47
2022/11/23 01:16:26;;;;;;;12.25;6.10;;;;;;;3.94;87.93;97549.44;5092704;28;20028;-47
2022/11/23 01:18:56;;;;;;;14.90;7.25;;;;;;;3.97;87.73;97539.47;5075902;28;20058;-47
2022/11/23 01:21:23;;;;;;;14.45;6.72;;;;;;;3.98;88.22;97535.09;5093914;28;20401;-47
2022/11/23 01:23:49;;;;;;;12.27;7.70;;;;;;;3.95;87.90;97540.66;5093613;28;20020;-47
2022/11/23 01:26:15;;;;;;;12.98;7.18;;;;;;;3.89;88.22;97539.59;5092550;28;20089;-47
2022/11/23 01:28:41;;;;;;;9.80;6.15;;;;;;;3.92;88.17;97556.59;5092436;28;20040;-47
2022/11/23 01:31:10;;;;;;;11.90;6.68;;;;;;;3.94;88.87;97549.44;5092415;28;20032;-47
2022/11/23 01:33:36;;;;;;;15.20;7.53;;;;;;;4.00;89.34;97549.50;5093716;28;20031;-47
2022/11/23 01:36:17;;;;;;;12.30;5.85;;;;;;;4.16;90.04;97547.63;5092307;28;20024;-47
2022/11/23 01:38:44;;;;;;;11.20;5.47;;;;;;;4.48;91.08;97561.84;5093574;28;20028;-47
2022/11/23 01:41:17;;;;;;;12.07;6.47;;;;;;;4.73;90.93;97551.84;5093542;28;20027;-47
2022/11/23 01:43:43;;;;;;;10.85;6.07;;;;;;;4.88;89.82;97549.09;5092201;28;20394;-47
2022/11/23 01:46:10;;;;;;;11.82;6.70;;;;;;;4.99;89.81;97540.78;5092095;28;20031;-47
2022/11/23 01:49:02;;;;;;;12.48;6.90;;;;;;;5.08;88.57;97540.63;5093430;28;20024;-47
2022/11/23 01:51:28;;;;;;;14.70;6.50;;;;;;;5.11;88.01;97532.41;5092871;28;20040;-47
2022/11/23 01:54:01;;;;;;;14.75;7.05;;;;;;;5.05;88.34;97513.22;5093580;28;20093;-47
2022/11/23 01:56:36;;;;;;;8.73;5.63;;;;;;;4.92;88.56;97511.34;5093228;28;20486;-47
2022/11/23 01:59:07;;;;;;;12.60;5.65;;;;;;;4.98;88.77;97515.75;5091898;28;20032;-47
2022/11/23 02:01:33;;;;;;;10.80;6.10;;;;;;;4.84;86.29;97506.31;5093177;28;20107;-47
2022/11/23 02:04:01;;;;;;;11.85;5.72;;;;;;;4.57;85.93;97494.97;5093143;28;20102;-47
2022/11/23 02:06:29;;;;;;;14.65;6.00;;;;;;;4.45;86.52;97484.31;5092909;28;20490;-47
2022/11/23 02:08:55;;;;;;;9.15;5.88;;;;;;;4.43;86.71;97482.88;5092159;28;20087;-47
2022/11/23 02:11:20;;;;;;;10.25;5.63;;;;;;;4.36;86.20;97481.03;5091643;28;20032;-47
2022/11/23 02:13:47;;;;;;;11.57;5.32;;;;;;;4.24;85.44;97490.34;5091625;28;20028;-47
2022/11/23 02:16:13;;;;;;;13.30;5.75;;;;;;;4.25;87.67;97493.78;5092852;28;20017;-47
2022/11/23 02:18:43;;;;;;;11.45;5.50;;;;;;;4.22;86.54;97491.53;5091404;28;20042;-47
2022/11/23 02:21:09;;;;;;;14.93;6.93;;;;;;;4.17;86.60;97494.72;5092759;28;20020;-47
2022/11/23 02:23:47;;;;;;;13.35;5.50;;;;;;;4.09;86.85;97490.47;5092772;28;20370;-47
2022/11/23 02:26:37;;;;;;;10.30;5.32;;;;;;;3.96;87.02;97487.75;5092733;28;20027;-47
2022/11/23 02:29:02;;;;;;;10.38;5.63;;;;;;;4.00;87.45;97488.97;5091410;28;20032;-47
2022/11/23 02:31:28;;;;;;;12.20;7.00;;;;;;;4.12;87.81;97481.47;5092618;28;20363;-47
2022/11/23 02:33:54;;;;;;;11.18;6.45;;;;;;;4.11;88.03;97483.28;5091291;28;20357;-47
2022/11/23 02:36:38;;;;;;;10.27;6.05;;;;;;;4.28;89.41;97488.19;5092506;28;20058;-47
2022/11/23 02:39:07;;;;;;;11.07;5.15;;;;;;;4.29;88.14;97485.41;5092613;28;20024;-47
2022/11/23 02:41:41;;;;;;;10.27;5.78;;;;;;;4.19;87.83;97490.94;5092358;28;20382;-47
2022/11/23 02:44:18;;;;;;;10.90;5.77;;;;;;;4.10;87.71;97473.88;5091175;28;20115;-47
2022/11/23 02:46:44;;;;;;;9.25;5.45;;;;;;;4.04;88.50;97466.03;5092362;28;20371;-47
2022/11/23 02:49:09;;;;;;;13.13;5.10;;;;;;;4.02;87.60;97442.88;5091026;28;20030;-47
2022/11/23 02:51:35;;;;;;;9.77;6.55;;;;;;;3.99;87.34;97444.06;5092494;28;20027;-46
2022/11/23 02:54:01;;;;;;;8.20;4.63;;;;;;;3.91;88.08;97433.03;5090901;28;20016;-47
2022/11/23 02:56:26;;;;;;;5.57;3.50;;;;;;;4.09;88.98;97422.16;5092209;28;20022;-47
2022/11/23 02:58:52;;;;;;;10.82;4.18;;;;;;;4.28;89.16;97418.06;5092092;28;20024;-47
2022/11/23 03:01:17;;;;;;;9.57;4.28;;;;;;;4.46;88.87;97415.75;5092102;28;20035;-47
2022/11/23 03:03:43;;;;;;;9.20;4.10;;;;;;;4.73;89.93;97403.69;5092135;28;20021;-47
2022/11/23 03:06:09;;;;;;;10.68;4.50;;;;;;;4.89;89.85;97391.34;5090790;28;20028;-47
2022/11/23 03:08:34;;;;;;;12.95;5.18;;;;;;;4.90;89.12;97372.94;5092071;28;20024;-47
2022/11/23 03:11:01;;;;;;;13.70;5.32;;;;;;;4.70;87.12;97364.31;5092072;28;20024;-47
2022/11/23 03:13:27;;;;;;;10.38;5.28;;;;;;;4.53;85.92;97376.84;5092240;28;20103;-47
2022/11/23 03:15:55;;;;;;;10.30;4.00;;;;;;;4.43;87.60;97391.97;5091916;28;20031;-47
2022/11/23 03:18:22;;;;;;;8.68;4.57;;;;;;;4.54;88.34;97386.22;5090422;28;20116;-47
2022/11/23 03:20:47;;;;;;;58.00;45.30;;;;;;;4.68;89.28;97371.50;5090568;28;20093;-47
2022/11/23 03:23:13;;;;;;;1417.43;745.70;;;;;;;4.92;89.44;97377.97;5090568;28;20489;-47
2022/11/23 03:25:41;;;;;;;999.70;518.22;;;;;;;5.02;88.81;97372.38;5091680;28;20071;-47
2022/11/23 03:28:07;;;;;;;174.57;67.43;;;;;;;5.27;89.67;97380.41;5091872;28;20051;-47
2022/11/23 03:30:33;;;;;;;366.40;267.38;;;;;;;5.67;91.38;97396.06;5090390;28;20059;-47
2022/11/23 03:32:58;;;;;;;237.85;160.30;;;;;;;6.12;91.15;97404.06;5090488;28;20401;-48
2022/11/23 03:35:24;;;;;;;245.32;170.43;;;;;;;6.43;91.41;97413.78;5091993;28;20024;-47
2022/11/23 03:37:49;;;;;;;269.63;203.27;;;;;;;7.11;93.75;97409.91;5090540;28;20030;-48
2022/11/23 03:40:15;;;;;;;133.68;79.70;;;;;;;7.77;94.77;97378.13;5091679;28;20490;-48
2022/11/23 03:42:41;;;;;;;31.58;15.45;;;;;;;8.02;93.14;97368.66;5091734;28;20454;-48
2022/11/23 03:45:07;;;;;;;9.75;5.30;;;;;;;7.91;90.81;97363.13;5090324;28;20024;-48
2022/11/23 03:47:33;;;;;;;11.60;6.28;;;;;;;7.43;86.46;97349.88;5073533;28;20032;-48
2022/11/23 03:49:59;;;;;;;8.20;4.78;;;;;;;6.82;84.22;97330.41;5091613;28;20031;-47
2022/11/23 03:52:25;;;;;;;7.80;4.13;;;;;;;6.36;81.66;97327.03;5090188;28;20115;-47
2022/11/23 03:54:50;;;;;;;15.35;6.93;;;;;;;6.17;83.93;97333.91;5091605;28;20024;-47
2022/11/23 03:57:16;;;;;;;13.43;6.95;;;;;;;6.32;84.01;97339.69;5091505;28;20103;-48
2022/11/23 03:59:41;;;;;;;9.15;3.97;;;;;;;6.43;82.44;97353.84;5091525;28;20077;-47
2022/11/23 04:02:07;;;;;;;9.45;4.30;;;;;;;6.40;81.04;97355.06;5091575;28;20020;-48
2022/11/23 04:04:33;;;;;;;9.93;3.85;;;;;;;6.56;82.59;97355.59;5091507;28;20122;-47
2022/11/23 04:06:59;;;;;;;7.05;3.97;;;;;;;6.83;83.81;97345.84;5091492;28;20418;-47
2022/11/23 04:09:25;;;;;;;12.60;4.53;;;;;;;6.94;84.33;97350.41;5090075;28;20044;-48
2022/11/23 04:11:51;;;;;;;9.75;4.10;;;;;;;7.05;85.55;97348.94;5091371;28;20031;-48
2022/11/23 04:14:16;;;;;;;8.00;4.00;;;;;;;7.25;84.16;97334.97;5090201;28;20024;-48
2022/11/23 04:16:42;;;;;;;8.40;3.85;;;;;;;7.49;85.33;97343.81;5091339;28;20048;-47
2022/11/23 04:19:08;;;;;;;7.18;3.60;;;;;;;7.59;84.34;97346.75;5073318;28;20078;-47
2022/11/23 04:21:33;;;;;;;11.70;3.95;;;;;;;7.13;81.75;97332.22;5091339;28;20501;-47
2022/11/23 04:23:59;;;;;;;7.95;3.63;;;;;;;6.51;81.64;97331.97;5089786;28;20056;-48
2022/11/23 04:26:25;;;;;;;9.98;4.38;;;;;;;6.04;82.18;97353.00;5089988;28;20039;-48
2022/11/23 04:28:50;;;;;;;9.98;4.07;;;;;;;5.80;82.16;97364.81;5089902;28;20024;-47
2022/11/23 04:31:16;;;;;;;10.18;4.50;;;;;;;5.90;84.86;97377.44;5092505;28;20454;-47
2022/11/23 04:33:41;;;;;;;12.02;4.38;;;;;;;6.28;86.44;97377.56;5093543;28;20035;-47
2022/11/23 04:36:07;;;;;;;8.05;4.40;;;;;;;6.51;86.21;97355.44;5093432;28;20088;-47
2022/11/23 04:38:33;;;;;;;18.13;7.00;;;;;;;6.47;85.39;97346.44;5094773;28;20058;-47
2022/11/23 04:40:59;;;;;;;20.05;7.15;;;;;;;6.57;86.45;97342.38;5094677;28;20149;-47
2022/11/23 04:43:24;;;;;;;9.88;6.07;;;;;;;6.66;85.92;97335.13;5093380;28;20118;-47
2022/11/23 04:45:50;;;;;;;12.32;4.90;;;;;;;6.59;85.31;97357.81;5094592;28;20028;-48
2022/11/23 04:48:15;;;;;;;11.70;5.30;;;;;;;6.63;85.78;97358.19;5094575;28;20073;-47
2022/11/23 04:50:41;;;;;;;13.68;5.18;;;;;;;6.59;85.28;97369.03;5094442;28;20062;-47
2022/11/23 04:53:07;;;;;;;8.98;4.95;;;;;;;6.27;84.79;97368.13;5094471;28;20069;-47
2022/11/23 04:55:33;;;;;;;8.32;4.55;;;;;;;5.91;84.70;97358.97;5094381;28;20024;-47
2022/11/23 04:57:59;;;;;;;9.73;4.57;;;;;;;5.73;85.33;97343.19;5094431;28;20035;-47
2022/11/23 05:00:25;;;;;;;23.75;5.30;;;;;;;5.59;85.18;97363.22;5092991;28;20444;-47
2022/11/23 05:02:50;;;;;;;8.48;4.43;;;;;;;5.51;85.62;97390.22;5094285;28;20108;-47
2022/11/23 05:05:16;;;;;;;8.07;4.70;;;;;;;5.32;86.25;97391.84;5094250;28;20044;-47
2022/11/23 05:07:42;;;;;;;12.07;5.88;;;;;;;5.28;86.94;97385.44;5094268;28;20028;-47
2022/11/23 05:10:08;;;;;;;19.08;5.40;;;;;;;5.63;88.50;97384.44;5094096;28;20442;-47
2022/11/23 05:12:35;;;;;;;8.32;4.47;;;;;;;6.31;89.52;97376.34;5094131;28;20115;-47
2022/11/23 05:15:01;;;;;;;8.13;4.70;;;;;;;6.68;88.19;97363.56;5094371;28;20104;-47
2022/11/23 05:17:26;;;;;;;9.90;4.43;;;;;;;6.67;85.37;97359.38;5092755;28;20470;-47
2022/11/23 05:19:52;;;;;;;9.57;6.07;;;;;;;6.45;82.88;97349.25;5092646;28;20111;-47
2022/11/23 05:22:18;;;;;;;7.97;4.93;;;;;;;6.23;82.17;97343.50;5093949;28;20047;-47
2022/11/23 05:24:43;;;;;;;11.13;4.72;;;;;;;6.08;83.67;97366.41;5092387;28;20135;-47
2022/11/23 05:27:09;;;;;;;8.10;4.45;;;;;;;6.09;84.25;97376.59;5093776;28;20020;-47
2022/11/23 05:29:35;;;;;;;7.95;4.88;;;;;;;6.07;83.71;97378.59;5092481;28;20077;-47
2022/11/23 05:32:01;;;;;;;14.32;5.22;;;;;;;6.25;84.21;97364.16;5092455;28;20032;-47
2022/11/23 05:34:26;;;;;;;11.27;4.57;;;;;;;6.58;84.54;97351.81;5093695;28;20036;-47
2022/11/23 05:36:53;;;;;;;13.10;5.38;;;;;;;6.50;82.50;97343.41;5093667;28;20027;-47
2022/11/23 05:39:19;;;;;;;8.32;4.47;;;;;;;6.17;81.59;97355.53;5093610;28;20089;-47
2022/11/23 05:41:45;;;;;;;7.65;3.40;;;;;;;5.96;82.70;97368.84;5092138;28;20024;-47
2022/11/23 05:44:10;;;;;;;9.15;4.82;;;;;;;6.02;83.84;97375.00;5093596;28;20032;-47
2022/11/23 05:46:36;;;;;;;6.90;3.60;;;;;;;6.22;84.40;97359.34;5093451;28;20103;-47
2022/11/23 05:49:01;;;;;;;8.25;4.00;;;;;;;6.33;83.98;97366.53;5093380;28;20039;-46
2022/11/23 05:51:27;;;;;;;11.45;3.97;;;;;;;6.38;83.17;97370.13;5093298;28;20028;-47
2022/11/23 05:53:52;;;;;;;11.65;3.78;;;;;;;6.53;83.58;97366.47;5092019;28;20050;-47
2022/11/23 05:56:18;;;;;;;20.73;4.68;;;;;;;6.75;83.69;97365.16;5093269;28;20017;-47
2022/11/23 05:58:44;;;;;;;5.72;3.40;;;;;;;7.10;83.20;97372.59;5093273;28;20050;-48
2022/11/23 06:01:10;;;;;;;11.30;3.90;;;;;;;7.23;81.66;97381.34;5093386;28;20061;-48
2022/11/23 06:03:35;;;;;;;9.68;3.55;;;;;;;7.21;81.09;97373.72;5093120;28;20031;-47
2022/11/23 06:06:01;;;;;;;5.78;3.80;;;;;;;7.37;81.06;97367.97;5093069;28;20103;-48
2022/11/23 06:08:26;;;;;;;13.45;4.07;;;;;;;7.43;79.81;97360.34;5091636;28;20028;-48
2022/11/23 06:10:52;;;;;;;14.73;4.25;;;;;;;7.42;79.44;97356.91;5091709;28;20031;-47
2022/11/23 06:13:18;;;;;;;6.50;3.78;;;;;;;7.24;77.21;97373.28;5091631;28;20517;-48
2022/11/23 06:15:43;;;;;;;9.13;4.95;;;;;;;7.00;75.79;97374.84;5092876;28;20027;-47
2022/11/23 06:18:09;;;;;;;14.65;5.70;;;;;;;6.76;73.05;97378.97;5092858;28;20020;-47
2022/11/23 06:20:34;;;;;;;8.70;4.88;;;;;;;6.54;73.20;97381.06;5093019;28;20465;-47
2022/11/23 06:23:00;;;;;;;7.00;5.00;;;;;;;6.37;74.10;97393.78;5091490;28;20028;-47
2022/11/23 06:25:26;;;;;;;6.43;4.55;;;;;;;6.12;74.32;97410.06;5090985;28;20040;-47
2022/11/23 06:27:56;;;;;;;13.13;5.95;;;;;;;5.86;75.41;97405.66;5092692;28;20020;-47
2022/11/23 06:30:22;;;;;;;10.07;4.78;;;;;;;5.71;77.06;97416.25;5091249;28;20077;-47
2022/11/23 06:32:48;;;;;;;19.13;7.10;;;;;;;5.64;78.28;97402.47;5091356;28;20027;-47
2022/11/23 06:35:14;;;;;;;12.90;7.45;;;;;;;5.70;77.94;97399.06;5092514;28;20391;-47
2022/11/23 06:37:39;;;;;;;9.73;6.20;;;;;;;5.77;77.48;97393.84;5092488;28;20017;-47
2022/11/23 06:40:05;;;;;;;31.25;7.32;;;;;;;5.64;77.42;97397.25;5092444;28;20036;-47
2022/11/23 06:42:31;;;;;;;12.48;6.28;;;;;;;5.60;78.71;97381.25;5092459;28;20027;-47
2022/11/23 06:44:57;;;;;;;13.02;6.60;;;;;;;5.60;78.53;97388.25;5092398;28;20020;-47
2022/11/23 06:47:22;;;;;;;11.13;5.93;;;;;;;5.56;78.32;97382.63;5092277;28;20107;-47
2022/11/23 06:49:48;;;;;;;12.20;6.57;;;;;;;5.63;78.99;97379.22;5090897;28;20031;-47
2022/11/23 06:52:14;;;;;;;17.02;6.38;;;;;;;5.78;78.02;97382.44;5090903;28;20024;-47
2022/11/23 06:54:39;;;;;;;9.05;5.50;;;;;;;5.99;78.63;97374.41;5090491;28;20424;-47
2022/11/23 06:57:08;;;;;;;13.50;6.65;;;;;;;6.23;77.62;97379.19;5092135;28;20075;-47
2022/11/23 06:59:34;;;;;;;12.35;6.63;;;;;;;6.27;77.36;97375.16;5092159;28;20046;-47
2022/11/23 07:02:00;;;;;;;63.85;38.22;;;;;;;6.27;76.44;97375.97;5092105;28;20560;-47
2022/11/23 07:04:25;;;;;;;17.10;8.20;;;;;;;6.15;75.72;97367.97;5092192;28;20103;-47
2022/11/23 07:06:51;;;;;;;11.18;7.35;;;;;;;6.05;75.32;97365.00;5090747;28;20031;-47
2022/11/23 07:09:17;;;;;;;9.77;7.60;;;;;;;5.87;75.87;97367.41;5073879;28;20475;-47
2022/11/23 07:11:42;;;;;;;16.25;6.45;;;;;;;5.74;76.58;97382.03;5090711;28;20054;-47
2022/11/23 07:14:08;;;;;;;9.25;5.95;;;;;;;5.79;77.03;97395.25;5092018;28;20024;-47
2022/11/23 07:16:34;;;;;;;9.55;5.70;;;;;;;5.89;75.78;97389.63;5090657;28;20027;-47
2022/11/23 07:18:59;;;;;;;25.52;6.60;;;;;;;5.93;76.04;97408.25;5091848;28;20028;-47
2022/11/23 07:21:25;;;;;;;9.13;5.38;;;;;;;5.90;76.14;97409.47;5091926;28;20040;-47
2022/11/23 07:23:51;;;;;;;27.70;10.65;;;;;;;6.07;78.20;97409.88;5090341;28;20113;-48
2022/11/23 07:26:16;;;;;;;15.65;7.57;;;;;;;6.64;79.73;97417.13;5090573;28;20035;-47
2022/11/23 07:28:42;;;;;;;25.88;10.95;;;;;;;7.19;79.20;97417.50;5090476;28;20619;-47
2022/11/23 07:31:08;;;;;;;37.70;13.27;;;;;;;7.74;78.82;97399.41;5092054;28;20111;-47
2022/11/23 07:33:33;;;;;;;16.63;7.45;;;;;;;8.33;77.28;97407.72;5092007;28;20028;-47
2022/11/23 07:36:02;;;;;;;23.38;9.55;;;;;;;8.33;72.89;97404.28;5090596;28;20024;-47
2022/11/23 07:38:29;;;;;;;21.48;10.00;;;;;;;7.97;73.02;97401.44;5090506;28;20024;-48
2022/11/23 07:40:55;;;;;;;27.20;9.15;;;;;;;7.77;73.87;97409.44;5091658;28;20028;-47
2022/11/23 07:43:21;;;;;;;22.20;9.18;;;;;;;8.02;75.01;97411.25;5091691;28;20117;-47
2022/11/23 07:45:46;;;;;;;26.70;10.25;;;;;;;8.29;74.92;97405.75;5091696;28;20026;-47
2022/11/23 07:48:12;;;;;;;17.92;8.45;;;;;;;8.58;73.60;97409.50;5090322;28;20486;-47
2022/11/23 07:50:39;;;;;;;29.88;13.25;;;;;;;8.83;73.50;97411.22;5091594;28;20039;-48
2022/11/23 07:53:06;;;;;;;22.58;9.10;;;;;;;9.19;72.83;97415.56;5090279;28;20490;-47
2022/11/23 07:55:32;;;;;;;21.15;7.97;;;;;;;9.15;70.24;97417.03;5090325;28;20039;-48
2022/11/23 07:57:58;;;;;;;14.38;6.68;;;;;;;9.03;69.08;97417.00;5090327;28;20063;-47
2022/11/23 08:00:26;;;;;;;13.50;6.88;;;;;;;8.58;67.85;97425.97;5091549;28;20028;-47
2022/11/23 08:02:52;;;;;;;19.25;8.25;;;;;;;8.21;70.31;97425.16;5091570;28;20078;-47
2022/11/23 08:05:18;;;;;;;13.77;6.50;;;;;;;8.13;71.39;97426.22;5091586;28;20020;-48
2022/11/23 08:07:44;;;;;;;11.95;6.32;;;;;;;8.15;70.71;97420.78;5095237;28;20024;-47
2022/11/23 08:10:11;;;;;;;12.50;5.15;;;;;;;8.23;71.60;97428.34;5094012;28;20555;-48
2022/11/23 08:12:37;;;;;;;15.95;6.75;;;;;;;8.23;71.86;97425.72;5094038;28;20036;-48
2022/11/23 08:15:04;;;;;;;12.35;6.40;;;;;;;8.58;71.80;97419.97;5095162;28;20027;-47
2022/11/23 08:17:29;;;;;;;12.35;6.68;;;;;;;9.10;71.68;97427.38;5095102;28;20580;-47
2022/11/23 08:19:55;;;;;;;10.02;6.13;;;;;;;9.50;70.23;97425.00;5095417;28;20035;-48
2022/11/23 08:22:21;;;;;;;23.23;7.43;;;;;;;9.70;69.85;97432.56;5095120;28;20024;-47
2022/11/23 08:24:47;;;;;;;10.60;5.30;;;;;;;10.05;67.90;97431.78;5094860;28;20044;-47
2022/11/23 08:27:13;;;;;;;16.00;7.15;;;;;;;10.11;68.11;97438.75;5094974;28;20103;-48
2022/11/23 08:29:38;;;;;;;19.63;7.30;;;;;;;10.26;67.58;97433.06;5094916;28;20028;-48
2022/11/23 08:32:04;;;;;;;11.15;5.57;;;;;;;10.49;65.88;97431.47;5094927;28;20024;-47
2022/11/23 08:34:30;;;;;;;11.75;5.60;;;;;;;10.47;65.75;97429.06;5094880;28;20031;-48
2022/11/23 08:36:56;;;;;;;12.25;6.22;;;;;;;10.75;65.56;97427.53;5093483;28;20028;-48
2022/11/23 08:39:22;;;;;;;12.65;6.30;;;;;;;10.73;63.75;97438.25;5093509;28;20104;-48
2022/11/23 08:41:47;;;;;;;8.85;4.95;;;;;;;10.70;65.16;97430.84;5094700;28;20493;-48
2022/11/23 08:44:13;;;;;;;12.82;5.22;;;;;;;10.70;64.60;97440.53;5094685;28;20035;-48
2022/11/23 08:46:39;;;;;;;9.32;5.75;;;;;;;10.53;64.19;97450.97;5094703;28;20514;-48
2022/11/23 08:49:06;;;;;;;10.93;6.20;;;;;;;10.57;65.29;97445.00;5094514;28;20478;-47
2022/11/23 08:51:32;;;;;;;22.27;6.28;;;;;;;10.74;64.98;97449.53;5094541;28;20043;-48
2022/11/23 08:53:58;;;;;;;14.20;6.03;;;;;;;10.71;65.14;97448.19;5076508;28;20020;-48
2022/11/23 08:56:24;;;;;;;22.92;5.85;;;;;;;10.94;63.49;97446.53;5093190;28;20034;-48
2022/11/23 08:58:49;;;;;;;24.75;6.00;;;;;;;11.13;64.04;97441.91;5093182;28;20093;-48
2022/11/23 09:01:16;;;;;;;14.40;5.50;;;;;;;11.51;64.30;97445.72;5094390;28;20024;-48
2022/11/23 09:03:43;;;;;;;11.65;4.65;;;;;;;11.79;62.05;97444.88;5094706;28;20023;-48
2022/11/23 09:06:09;;;;;;;17.77;5.93;;;;;;;11.63;61.98;97443.03;5093057;28;20375;-48
2022/11/23 09:08:35;;;;;;;14.70;5.20;;;;;;;11.75;63.37;97449.00;5094189;28;20021;-48
2022/11/23 09:11:03;;;;;;;15.45;5.20;;;;;;;11.87;62.05;97444.50;5094221;28;20055;-48
2022/11/23 09:13:29;;;;;;;9.25;4.90;;;;;;;11.89;60.59;97455.59;5092888;28;20447;-47
2022/11/23 09:15:59;;;;;;;14.23;5.55;;;;;;;11.90;60.83;97459.81;5094128;28;20095;-48
2022/11/23 09:18:25;;;;;;;17.63;5.53;;;;;;;11.92;61.42;97457.75;5092288;28;20432;-48
2022/11/23 09:20:51;;;;;;;14.98;5.72;;;;;;;12.13;62.17;97461.50;5092649;28;20036;-48
2022/11/23 09:23:17;;;;;;;25.25;7.25;;;;;;;12.48;60.70;97459.63;5092758;28;20034;-48
2022/11/23 09:25:46;;;;;;;24.38;7.35;;;;;;;12.54;60.90;97464.69;5092390;28;20044;-48
2022/11/23 09:28:13;;;;;;;17.73;6.40;;;;;;;12.68;60.87;97470.41;5093802;28;20469;-48
2022/11/23 09:30:42;;;;;;;11.52;4.85;;;;;;;12.72;61.06;97468.09;5093665;28;20020;-48
2022/11/23 09:33:08;;;;;;;11.05;4.35;;;;;;;12.79;60.16;97477.38;5093759;28;20073;-48
2022/11/23 09:35:34;;;;;;;7.93;4.95;;;;;;;12.80;60.47;97475.56;5093697;28;20032;-48
2022/11/23 09:38:00;;;;;;;6.80;4.30;;;;;;;12.86;61.25;97479.03;5093675;28;20028;-48
2022/11/23 09:40:32;;;;;;;19.85;5.60;;;;;;;12.64;63.57;97469.31;5093594;28;20502;-48
2022/11/23 09:43:25;;;;;;;17.23;5.60;;;;;;;12.02;65.21;97459.75;5093615;28;20032;-48
2022/11/23 09:46:01;;;;;;;15.50;5.35;;;;;;;11.39;68.40;97461.56;5093561;28;20034;-48
2022/11/23 09:48:57;;;;;;;10.82;5.47;;;;;;;10.78;69.15;97469.03;5093456;28;20035;-48
2022/11/23 09:51:23;;;;;;;8.35;4.82;;;;;;;10.24;69.07;97473.63;5093388;28;20032;-48
2022/11/23 09:54:01;;;;;;;8.45;3.20;;;;;;;9.75;71.76;97476.41;5091997;28;20036;-48
2022/11/23 09:56:38;;;;;;;9.80;3.55;;;;;;;9.57;74.79;97472.84;5093359;28;20027;-47
2022/11/23 09:59:43;;;;;;;5.20;1.80;;;;;;;9.67;75.44;97468.88;5093459;28;20032;-48
2022/11/23 10:02:29;;;;;;;19.65;6.00;;;;;;;9.88;77.85;97478.84;5091868;28;20505;-48
2022/11/23 10:04:58;;;;;;;15.75;5.18;;;;;;;10.14;77.64;97468.94;5093128;28;20581;-48
2022/11/23 10:07:45;;;;;;;10.68;5.53;;;;;;;10.23;78.06;97461.56;5091783;28;20069;-48
2022/11/23 10:10:18;;;;;;;6.80;5.00;;;;;;;10.22;77.97;97462.56;5091665;28;20028;-48
2022/11/23 10:12:53;;;;;;;11.55;5.85;;;;;;;10.12;78.99;97465.75;5093008;28;20077;-48
2022/11/23 10:15:27;;;;;;;10.48;3.90;;;;;;;10.15;77.76;97466.09;5092908;28;20028;-48
2022/11/23 10:18:35;;;;;;;12.82;4.90;;;;;;;9.86;77.48;97462.56;5092973;28;20599;-48
2022/11/23 10:21:23;;;;;;;8.27;3.90;;;;;;;9.94;79.28;97461.41;5030389;28;20594;-48
2022/11/23 10:24:09;;;;;;;5.57;3.28;;;;;;;9.85;79.10;97449.66;5013635;28;20428;-48
2022/11/23 10:26:39;;;;;;;;;;;;;;;10.15;82.37;97442.50;5030302;28;20037;-48
2022/11/23 10:29:34;;;;;;;7.78;3.58;;;;;;;10.65;79.22;97448.31;5012928;28;19924;-48
2022/11/23 10:32:00;;;;;;;9.15;3.47;;;;;;;10.94;76.69;97449.94;5030337;28;20053;-48
2022/11/23 10:34:50;;;;;;;11.65;3.70;;;;;;;10.64;76.03;97444.88;5030236;28;20534;-48
2022/11/23 10:37:17;;;;;;;8.00;3.30;;;;;;;10.81;78.19;97439.72;5013693;28;20120;-47
2022/11/23 10:39:43;;;;;;;7.07;3.42;;;;;;;11.00;76.95;97445.59;5030122;28;20040;-47
2022/11/23 10:42:20;;;;;;;6.25;3.20;;;;;;;11.08;75.96;97444.44;5013527;28;20029;-48
2022/11/23 10:44:49;;;;;;;13.70;3.45;;;;;;;11.17;76.73;97437.78;5013516;28;20048;-48
2022/11/23 10:47:54;;;;;;;11.27;3.35;;;;;;;11.69;79.27;97437.66;5030030;28;20038;-48
2022/11/23 10:50:32;;;;;;;11.30;3.38;;;;;;;12.08;75.45;97434.31;4990430;28;20155;-48
2022/11/23 10:53:21;;;;;;;5.47;2.63;;;;;;;12.57;75.07;97442.34;4990624;28;20038;-48
2022/11/23 10:55:56;;;;;;;13.38;3.47;;;;;;;12.69;71.97;97434.34;5003364;28;20072;-48
2022/11/23 10:58:30;;;;;;;7.93;2.92;;;;;;;13.09;70.99;97417.41;5069895;28;20025;-48
2022/11/23 11:01:01;;;;;;;14.95;2.92;;;;;;;13.41;70.03;97422.78;5069565;28;20036;-48
2022/11/23 11:03:32;;;;;;;8.43;2.75;;;;;;;13.83;68.04;97416.00;5069607;28;20119;-48
2022/11/23 11:05:59;;;;;;;9.68;3.13;;;;;;;14.28;68.07;97422.63;5069659;28;20056;-48
2022/11/23 11:08:45;;;;;;;14.80;3.13;;;;;;;14.35;68.39;97428.50;5069528;28;20491;-48
2022/11/23 11:11:23;;;;;;;8.55;2.33;;;;;;;14.27;66.13;97436.88;5069667;28;20028;-48
2022/11/23 11:13:49;;;;;;;9.35;2.05;;;;;;;13.87;65.81;97438.97;5052773;28;20068;-48
2022/11/23 11:16:29;;;;;;;7.13;2.53;;;;;;;14.00;64.89;97437.75;5052938;28;20028;-47
2022/11/23 11:18:55;;;;;;;8.05;2.45;;;;;;;14.07;64.81;97416.44;5069618;28;20091;-47
2022/11/23 11:21:39;;;;;;;8.15;2.88;;;;;;;14.22;64.41;97405.19;5083499;28;20411;-47
2022/11/23 11:24:14;;;;;;;3.78;1.80;;;;;;;14.08;62.72;97410.09;5091734;28;20149;-48
2022/11/23 11:26:51;;;;;;;8.50;3.22;;;;;;;14.24;65.02;97409.16;5091805;28;20048;-47
2022/11/23 11:29:45;;;;;;;5.10;1.70;;;;;;;14.29;60.83;97411.03;5090501;28;20067;-48
2022/11/23 11:32:28;;;;;;;3.22;1.77;;;;;;;14.37;64.29;97411.34;5091796;28;20498;-48
2022/11/23 11:35:33;;;;;;;6.05;1.95;;;;;;;15.61;63.61;97419.66;5091774;28;20500;-48
2022/11/23 11:38:16;;;;;;;5.43;2.17;;;;;;;15.61;56.34;97428.38;5091803;28;20020;-48
2022/11/23 11:40:48;;;;;;;4.90;1.85;;;;;;;15.34;54.01;97429.41;5093935;28;20055;-48